createdAt,value
2017-12-30T00:00:24.530Z,4.20
2017-12-30T00:02:52.061Z,4.30
2017-12-30T00:05:19.914Z,4.30
2017-12-30T00:07:47.448Z,4.00
2017-12-30T00:10:15.845Z,3.80
2017-12-30T00:12:43.390Z,3.80
2017-12-30T00:15:10.931Z,3.70
2017-12-30T00:17:39.310Z,4.00
2017-12-30T00:20:06.894Z,4.00
2017-12-30T00:22:34.620Z,3.90
2017-12-30T00:25:03.044Z,3.70
2017-12-30T00:27:30.602Z,3.70
2017-12-30T00:29:58.128Z,3.70
2017-12-30T00:32:26.599Z,3.70
2017-12-30T00:34:54.214Z,3.60
2017-12-30T00:37:21.760Z,3.50
2017-12-30T00:39:49.285Z,3.50
2017-12-30T00:42:16.808Z,3.40
2017-12-30T00:44:44.350Z,3.30
2017-12-30T00:47:12.124Z,3.30
2017-12-30T00:49:39.695Z,3.50
2017-12-30T00:52:07.228Z,3.50
2017-12-30T00:54:34.781Z,3.70
2017-12-30T00:57:02.352Z,3.70
2017-12-30T00:59:29.882Z,3.70
2017-12-30T01:01:58.201Z,3.60
2017-12-30T01:04:25.720Z,3.60
2017-12-30T01:06:54.008Z,3.70
2017-12-30T01:09:22.320Z,3.60
2017-12-30T01:11:49.842Z,3.60
2017-12-30T01:14:18.136Z,3.40
2017-12-30T01:16:45.653Z,3.40
2017-12-30T01:19:13.201Z,3.20
2017-12-30T01:21:40.750Z,3.30
2017-12-30T01:24:08.302Z,3.20
2017-12-30T01:26:35.870Z,3.20
2017-12-30T01:29:03.511Z,3.30
2017-12-30T01:31:31.140Z,3.20
2017-12-30T01:33:59.432Z,3.30
2017-12-30T01:36:26.944Z,3.30
2017-12-30T01:38:54.480Z,3.10
2017-12-30T01:41:24.043Z,3.10
2017-12-30T01:43:52.985Z,3.20
2017-12-30T01:46:20.510Z,3.20
2017-12-30T01:49:03.038Z,3.10
2017-12-30T01:51:30.614Z,3.30
2017-12-30T01:53:58.204Z,3.20
2017-12-30T01:56:25.743Z,3.10
2017-12-30T01:58:53.291Z,3.00
2017-12-30T02:01:20.827Z,2.90
2017-12-30T02:03:48.483Z,2.90
2017-12-30T02:06:16.020Z,2.90
2017-12-30T02:08:43.606Z,3.00
2017-12-30T02:11:11.200Z,3.20
2017-12-30T02:13:39.041Z,3.30
2017-12-30T02:16:06.607Z,3.20
2017-12-30T02:18:34.859Z,3.20
2017-12-30T02:21:02.405Z,3.30
2017-12-30T02:23:30.904Z,3.40
2017-12-30T02:25:58.445Z,3.40
2017-12-30T02:28:27.201Z,3.30
2017-12-30T02:30:54.752Z,3.30
2017-12-30T02:33:22.272Z,3.20
2017-12-30T02:35:49.792Z,3.30
2017-12-30T02:38:17.324Z,3.30
2017-12-30T02:40:44.881Z,3.30
2017-12-30T02:43:12.436Z,3.40
2017-12-30T02:45:39.983Z,3.40
2017-12-30T02:48:07.511Z,3.30
2017-12-30T02:50:35.931Z,3.20
2017-12-30T02:53:03.497Z,3.20
2017-12-30T02:55:31.026Z,3.20
2017-12-30T02:57:58.560Z,3.20
2017-12-30T03:00:26.077Z,3.10
2017-12-30T03:02:53.612Z,3.10
2017-12-30T03:05:21.265Z,2.90
2017-12-30T03:07:49.551Z,3.20
2017-12-30T03:10:17.097Z,3.20
2017-12-30T03:12:45.397Z,3.30
2017-12-30T03:15:12.944Z,3.30
2017-12-30T03:17:40.477Z,3.30
2017-12-30T03:20:08.019Z,3.30
2017-12-30T03:22:36.360Z,3.40
2017-12-30T03:25:03.942Z,3.40
2017-12-30T03:27:32.526Z,3.40
2017-12-30T03:30:00.046Z,3.40
2017-12-30T03:32:27.590Z,3.30
2017-12-30T03:34:55.888Z,3.20
2017-12-30T03:37:23.405Z,3.20
2017-12-30T03:39:50.937Z,3.30
2017-12-30T03:42:18.453Z,3.40
2017-12-30T03:44:46.737Z,3.30
2017-12-30T03:47:14.283Z,3.30
2017-12-30T03:49:42.566Z,3.40
2017-12-30T03:52:10.890Z,3.50
2017-12-30T03:54:38.461Z,3.50
2017-12-30T03:57:06.009Z,3.60
2017-12-30T03:59:33.631Z,3.70
2017-12-30T04:02:01.188Z,3.70
2017-12-30T04:04:28.732Z,3.90
2017-12-30T04:06:57.015Z,3.90
2017-12-30T04:09:24.561Z,3.90
2017-12-30T04:11:52.081Z,3.90
2017-12-30T04:14:19.722Z,4.00
2017-12-30T04:16:47.256Z,4.00
2017-12-30T04:19:17.581Z,4.10
2017-12-30T04:21:45.966Z,4.20
2017-12-30T04:24:14.276Z,4.20
2017-12-30T04:26:41.935Z,4.30
2017-12-30T04:29:09.494Z,4.40
2017-12-30T04:31:37.057Z,4.40
2017-12-30T04:34:04.784Z,4.40
2017-12-30T04:36:33.113Z,4.50
2017-12-30T04:39:01.476Z,4.50
2017-12-30T04:41:28.991Z,4.50
2017-12-30T04:43:56.520Z,4.60
2017-12-30T04:46:24.261Z,4.60
2017-12-30T04:48:51.903Z,4.60
2017-12-30T04:51:19.424Z,4.70
2017-12-30T04:53:46.942Z,4.70
2017-12-30T04:56:14.476Z,4.80
2017-12-30T04:58:42.761Z,4.90
2017-12-30T05:01:10.303Z,4.90
2017-12-30T05:03:38.599Z,4.80
2017-12-30T05:06:06.162Z,4.80
2017-12-30T05:08:33.800Z,4.80
2017-12-30T05:11:01.502Z,4.70
2017-12-30T05:13:29.046Z,4.60
2017-12-30T05:15:56.559Z,4.50
2017-12-30T05:18:24.117Z,4.60
2017-12-30T05:20:51.630Z,4.60
2017-12-30T05:23:19.172Z,4.60
2017-12-30T05:25:47.463Z,4.60
2017-12-30T05:28:14.991Z,4.60
2017-12-30T05:30:42.544Z,4.60
2017-12-30T05:33:10.081Z,4.60
2017-12-30T05:35:37.638Z,4.60
2017-12-30T05:38:06.457Z,4.60
2017-12-30T05:40:36.538Z,4.60
2017-12-30T05:43:06.777Z,4.60
2017-12-30T05:45:35.099Z,4.60
2017-12-30T05:48:02.635Z,4.50
2017-12-30T05:50:30.463Z,4.60
2017-12-30T05:52:59.851Z,4.60
2017-12-30T05:55:28.011Z,4.60
2017-12-30T05:57:56.650Z,4.60
2017-12-30T06:00:26.404Z,4.60
2017-12-30T06:02:56.486Z,4.70
2017-12-30T06:05:27.685Z,4.70
2017-12-30T06:07:57.017Z,4.70
2017-12-30T06:10:26.115Z,4.70
2017-12-30T06:12:56.527Z,4.60
2017-12-30T06:15:25.155Z,4.70
2017-12-30T06:17:54.329Z,4.70
2017-12-30T06:20:24.626Z,4.70
2017-12-30T06:22:54.633Z,4.70
2017-12-30T06:25:24.080Z,4.80
2017-12-30T06:27:52.672Z,4.70
2017-12-30T06:30:23.334Z,4.80
2017-12-30T06:32:55.043Z,4.90
2017-12-30T06:35:24.510Z,4.80
2017-12-30T06:37:56.158Z,4.90
2017-12-30T06:40:24.649Z,4.80
2017-12-30T06:42:55.617Z,4.80
2017-12-30T06:45:25.094Z,4.80
2017-12-30T06:47:54.806Z,4.80
2017-12-30T06:50:25.348Z,4.80
2017-12-30T06:52:54.460Z,4.90
2017-12-30T06:55:23.835Z,4.80
2017-12-30T06:57:53.959Z,4.80
2017-12-30T07:00:24.495Z,4.80
2017-12-30T07:02:53.913Z,4.70
2017-12-30T07:05:23.874Z,4.80
2017-12-30T07:07:55.689Z,4.80
2017-12-30T07:10:25.069Z,4.80
2017-12-30T07:12:55.155Z,4.80
2017-12-30T07:15:25.979Z,4.80
2017-12-30T07:17:55.500Z,4.90
2017-12-30T07:20:25.472Z,4.90
2017-12-30T07:22:55.782Z,4.90
2017-12-30T07:25:26.574Z,4.90
2017-12-30T07:27:57.341Z,5.00
2017-12-30T07:30:26.347Z,5.10
2017-12-30T07:32:57.780Z,5.20
2017-12-30T07:35:29.583Z,5.20
2017-12-30T07:37:58.841Z,5.30
2017-12-30T07:40:27.953Z,5.40
2017-12-30T07:42:57.264Z,5.40
2017-12-30T07:45:26.633Z,5.40
2017-12-30T07:47:56.024Z,5.50
2017-12-30T07:50:26.178Z,5.50
2017-12-30T07:52:55.272Z,5.60
2017-12-30T07:55:26.110Z,5.50
2017-12-30T07:57:55.184Z,5.50
2017-12-30T08:00:24.426Z,5.60
2017-12-30T08:02:53.757Z,5.70
2017-12-30T08:05:25.420Z,5.70
2017-12-30T08:07:54.911Z,5.80
2017-12-30T08:10:24.384Z,5.90
2017-12-30T08:12:53.480Z,5.90
2017-12-30T08:15:22.134Z,6.00
2017-12-30T08:17:51.922Z,6.20
2017-12-30T08:20:24.398Z,6.40
2017-12-30T08:22:54.338Z,6.50
2017-12-30T08:25:24.378Z,6.60
2017-12-30T08:27:55.801Z,6.80
2017-12-30T08:30:25.888Z,6.90
2017-12-30T08:32:56.440Z,6.90
2017-12-30T08:35:25.212Z,7.00
2017-12-30T08:37:54.707Z,7.10
2017-12-30T08:40:25.319Z,7.10
2017-12-30T08:42:54.451Z,7.10
2017-12-30T08:45:24.189Z,7.20
2017-12-30T08:47:53.954Z,7.20
2017-12-30T08:50:25.159Z,7.20
2017-12-30T08:52:56.047Z,7.30
2017-12-30T08:55:27.392Z,7.20
2017-12-30T08:57:57.323Z,7.30
2017-12-30T09:00:27.784Z,7.30
2017-12-30T09:02:58.996Z,7.30
2017-12-30T09:05:30.739Z,7.30
2017-12-30T09:08:01.587Z,7.50
2017-12-30T09:10:30.032Z,7.60
2017-12-30T09:13:00.593Z,7.50
2017-12-30T09:15:29.558Z,7.60
2017-12-30T09:18:00.451Z,7.60
2017-12-30T09:20:29.158Z,7.60
2017-12-30T09:22:58.751Z,7.70
2017-12-30T09:25:28.191Z,7.60
2017-12-30T09:27:58.699Z,7.60
2017-12-30T09:30:29.358Z,7.70
2017-12-30T09:32:58.819Z,7.70
2017-12-30T09:35:28.314Z,7.90
2017-12-30T09:37:59.525Z,7.90
2017-12-30T09:40:29.388Z,8.00
2017-12-30T09:43:03.177Z,8.10
2017-12-30T09:45:31.059Z,8.10
2017-12-30T09:48:03.400Z,8.30
2017-12-30T09:50:33.033Z,8.50
2017-12-30T09:53:03.346Z,8.70
2017-12-30T09:55:34.412Z,9.10
2017-12-30T09:58:01.995Z,9.10
2017-12-30T10:00:32.927Z,9.30
2017-12-30T10:03:04.048Z,9.40
2017-12-30T10:05:36.710Z,9.40
2017-12-30T10:08:04.294Z,9.50
2017-12-30T10:10:31.794Z,9.60
2017-12-30T10:13:01.399Z,9.70
2017-12-30T10:15:36.424Z,9.70
2017-12-30T10:18:04.686Z,9.80
2017-12-30T10:20:34.603Z,10.00
2017-12-30T10:23:03.762Z,10.00
2017-12-30T10:25:32.664Z,10.00
2017-12-30T10:28:02.864Z,10.00
2017-12-30T10:30:31.175Z,10.20
2017-12-30T10:32:59.551Z,10.20
2017-12-30T10:35:28.266Z,10.20
2017-12-30T10:37:58.297Z,10.30
2017-12-30T10:40:28.094Z,10.40
2017-12-30T10:42:56.665Z,10.60
2017-12-30T10:45:24.966Z,10.60
2017-12-30T10:47:56.054Z,10.60
2017-12-30T10:50:25.440Z,10.60
2017-12-30T10:52:55.383Z,10.60
2017-12-30T10:55:25.841Z,10.70
2017-12-30T10:57:56.255Z,10.80
2017-12-30T11:00:31.176Z,11.00
2017-12-30T11:02:58.964Z,11.00
2017-12-30T11:05:27.959Z,10.90
2017-12-30T11:07:56.651Z,11.00
2017-12-30T11:10:25.053Z,11.10
2017-12-30T11:12:57.325Z,11.20
2017-12-30T11:15:26.902Z,11.20
2017-12-30T11:17:55.656Z,11.30
2017-12-30T11:20:26.974Z,11.40
2017-12-30T11:22:58.228Z,11.40
2017-12-30T11:25:29.595Z,11.40
2017-12-30T11:28:04.224Z,11.40
2017-12-30T11:30:33.638Z,11.50
2017-12-30T11:33:01.286Z,12.00
2017-12-30T11:35:30.533Z,11.60
2017-12-30T11:38:01.290Z,11.70
2017-12-30T11:40:28.924Z,11.60
2017-12-30T11:42:56.814Z,11.70
2017-12-30T11:45:27.531Z,11.70
2017-12-30T11:47:58.980Z,11.80
2017-12-30T11:50:32.271Z,11.90
2017-12-30T11:53:01.379Z,11.90
2017-12-30T11:55:30.471Z,11.90
2017-12-30T11:58:00.291Z,12.00
2017-12-30T12:00:29.569Z,12.00
2017-12-30T12:02:59.158Z,12.00
2017-12-30T12:05:29.291Z,12.10
2017-12-30T12:07:57.491Z,12.20
2017-12-30T12:10:26.505Z,12.20
2017-12-30T12:12:55.844Z,12.10
2017-12-30T12:15:25.485Z,12.10
2017-12-30T12:17:57.179Z,12.10
2017-12-30T12:20:27.412Z,12.10
2017-12-30T12:22:58.334Z,12.20
2017-12-30T12:25:27.815Z,12.20
2017-12-30T12:27:58.740Z,12.20
2017-12-30T12:30:28.683Z,12.20
2017-12-30T12:32:58.504Z,12.10
2017-12-30T12:35:27.337Z,12.10
2017-12-30T12:37:57.162Z,12.20
2017-12-30T12:40:25.808Z,12.20
2017-12-30T12:42:55.348Z,12.20
2017-12-30T12:45:25.805Z,12.20
2017-12-30T12:47:56.573Z,12.20
2017-12-30T12:50:26.650Z,12.20
2017-12-30T12:52:56.287Z,11.80
2017-12-30T12:55:25.168Z,12.20
2017-12-30T12:57:55.333Z,12.20
2017-12-30T13:00:25.842Z,12.10
2017-12-30T13:02:56.584Z,12.20
2017-12-30T13:05:26.286Z,12.20
2017-12-30T13:07:55.538Z,12.20
2017-12-30T13:10:25.258Z,12.30
2017-12-30T13:12:55.982Z,12.30
2017-12-30T13:15:24.833Z,12.30
2017-12-30T13:17:55.517Z,12.30
2017-12-30T13:20:26.199Z,12.20
2017-12-30T13:22:55.624Z,12.10
2017-12-30T13:25:25.740Z,12.20
2017-12-30T13:27:54.036Z,12.10
2017-12-30T13:30:24.457Z,12.20
2017-12-30T13:32:55.003Z,12.30
2017-12-30T13:35:23.792Z,12.30
2017-12-30T13:37:56.518Z,12.30
2017-12-30T13:40:25.631Z,12.20
2017-12-30T13:42:54.168Z,12.20
2017-12-30T13:45:21.960Z,12.20
2017-12-30T13:47:52.915Z,12.10
2017-12-30T13:50:22.640Z,12.20
2017-12-30T13:52:52.932Z,12.20
2017-12-30T13:55:22.560Z,12.20
2017-12-30T13:57:52.481Z,12.30
2017-12-30T14:00:21.954Z,12.30
2017-12-30T14:02:55.236Z,12.30
2017-12-30T14:05:23.830Z,12.30
2017-12-30T14:07:53.768Z,12.20
2017-12-30T14:10:24.830Z,12.20
2017-12-30T14:12:53.438Z,12.20
2017-12-30T14:15:24.428Z,12.20
2017-12-30T14:17:55.733Z,12.20
2017-12-30T14:20:25.691Z,12.30
2017-12-30T14:22:55.613Z,12.20
2017-12-30T14:25:26.965Z,12.20
2017-12-30T14:27:54.775Z,12.20
2017-12-30T14:30:24.371Z,12.20
2017-12-30T14:32:58.891Z,12.10
2017-12-30T14:35:27.621Z,12.10
2017-12-30T14:37:55.838Z,12.00
2017-12-30T14:40:26.537Z,12.00
2017-12-30T14:42:56.339Z,12.00
2017-12-30T14:45:26.552Z,12.00
2017-12-30T14:47:55.961Z,12.10
2017-12-30T14:50:26.313Z,12.00
2017-12-30T14:52:56.948Z,12.00
2017-12-30T14:55:25.085Z,12.00
2017-12-30T14:57:54.093Z,11.90
2017-12-30T15:00:23.013Z,11.90
2017-12-30T15:02:52.510Z,11.90
2017-12-30T15:05:22.227Z,11.90
2017-12-30T15:07:52.121Z,12.00
2017-12-30T15:10:21.612Z,12.00
2017-12-30T15:12:51.653Z,11.90
2017-12-30T15:15:20.374Z,12.00
2017-12-30T15:17:51.619Z,11.90
2017-12-30T15:20:22.269Z,12.00
2017-12-30T15:22:53.756Z,12.00
2017-12-30T15:25:23.580Z,12.00
2017-12-30T15:27:52.965Z,12.00
2017-12-30T15:30:22.177Z,11.90
2017-12-30T15:32:50.810Z,12.00
2017-12-30T15:35:21.125Z,11.90
2017-12-30T15:37:50.677Z,11.90
2017-12-30T15:40:20.755Z,11.90
2017-12-30T15:42:49.389Z,11.90
2017-12-30T15:45:17.044Z,11.90
2017-12-30T15:47:45.845Z,12.00
2017-12-30T15:50:13.523Z,11.90
2017-12-30T15:52:41.028Z,12.00
2017-12-30T15:55:09.323Z,11.90
2017-12-30T15:57:37.595Z,11.80
2017-12-30T16:00:05.124Z,11.80
2017-12-30T16:02:32.783Z,11.80
2017-12-30T16:05:00.857Z,11.80
2017-12-30T16:07:28.595Z,11.60
2017-12-30T16:09:56.408Z,11.70
2017-12-30T16:12:25.405Z,11.80
2017-12-30T16:14:52.985Z,11.80
2017-12-30T16:17:20.587Z,11.80
2017-12-30T16:19:48.249Z,11.80
2017-12-30T16:22:15.794Z,11.90
2017-12-30T16:24:44.618Z,11.90
2017-12-30T16:27:12.197Z,11.90
2017-12-30T16:29:40.250Z,12.00
2017-12-30T16:32:07.784Z,12.00
2017-12-30T16:34:37.173Z,12.10
2017-12-30T16:37:04.725Z,12.10
2017-12-30T16:39:32.251Z,12.10
2017-12-30T16:41:59.770Z,12.10
2017-12-30T16:44:28.370Z,12.20
2017-12-30T16:46:56.162Z,12.10
2017-12-30T16:49:24.777Z,12.10
2017-12-30T16:51:52.684Z,12.10
2017-12-30T16:54:21.467Z,12.20
2017-12-30T16:56:50.183Z,12.20
2017-12-30T16:59:18.959Z,12.00
2017-12-30T17:01:46.826Z,12.00
2017-12-30T17:04:15.649Z,12.00
2017-12-30T17:06:43.394Z,11.90
2017-12-30T17:09:11.054Z,12.00
2017-12-30T17:11:38.657Z,11.90
2017-12-30T17:14:06.187Z,11.80
2017-12-30T17:16:33.771Z,11.80
2017-12-30T17:19:01.318Z,11.90
2017-12-30T17:21:29.606Z,11.90
2017-12-30T17:23:57.854Z,12.00
2017-12-30T17:26:26.205Z,12.00
2017-12-30T17:28:54.924Z,11.90
2017-12-30T17:31:23.997Z,11.80
2017-12-30T17:33:51.858Z,11.70
2017-12-30T17:36:20.175Z,11.70
2017-12-30T17:38:49.212Z,11.70
2017-12-30T17:41:16.937Z,11.70
2017-12-30T17:43:44.765Z,11.80
2017-12-30T17:46:12.325Z,11.80
2017-12-30T17:48:39.988Z,11.70
2017-12-30T17:51:07.570Z,11.80
2017-12-30T17:53:35.119Z,11.90
2017-12-30T17:56:02.639Z,12.00
2017-12-30T17:58:30.942Z,12.10
2017-12-30T18:00:59.011Z,12.10
2017-12-30T18:03:27.504Z,12.10
2017-12-30T18:05:55.466Z,12.20
2017-12-30T18:08:23.087Z,12.10
2017-12-30T18:10:51.613Z,12.20
2017-12-30T18:13:19.844Z,12.20
2017-12-30T18:15:47.893Z,12.20
2017-12-30T18:18:17.163Z,12.20
2017-12-30T18:20:45.850Z,12.30
2017-12-30T18:23:13.420Z,12.20
2017-12-30T18:25:41.254Z,12.30
2017-12-30T18:28:09.340Z,12.30
2017-12-30T18:30:37.393Z,12.30
2017-12-30T18:33:06.623Z,12.30
2017-12-30T18:35:34.160Z,12.40
2017-12-30T18:38:01.721Z,12.30
2017-12-30T18:40:29.256Z,12.30
2017-12-30T18:42:57.150Z,12.30
2017-12-30T18:45:24.701Z,12.30
2017-12-30T18:47:52.988Z,12.30
2017-12-30T18:50:20.525Z,12.30
2017-12-30T18:52:49.352Z,12.40
2017-12-30T18:55:16.974Z,12.40
2017-12-30T18:57:45.361Z,12.40
2017-12-30T19:00:13.028Z,12.40
2017-12-30T19:02:41.537Z,12.30
2017-12-30T19:05:10.022Z,12.40
2017-12-30T19:07:37.687Z,12.40
2017-12-30T19:10:05.283Z,12.50
2017-12-30T19:12:33.645Z,12.40
2017-12-30T19:15:01.176Z,12.40
2017-12-30T19:17:28.698Z,12.50
2017-12-30T19:19:56.316Z,12.50
2017-12-30T19:22:23.895Z,12.40
2017-12-30T19:24:51.625Z,12.50
2017-12-30T19:27:19.262Z,12.40
2017-12-30T19:29:46.911Z,12.20
2017-12-30T19:32:15.022Z,12.30
2017-12-30T19:34:42.645Z,12.20
2017-12-30T19:37:10.956Z,12.20
2017-12-30T19:39:40.485Z,12.20
2017-12-30T19:42:08.229Z,12.30
2017-12-30T19:44:35.793Z,12.30
2017-12-30T19:47:03.534Z,12.40
2017-12-30T19:49:31.153Z,12.40
2017-12-30T19:51:58.697Z,12.40
2017-12-30T19:54:26.253Z,12.40
2017-12-30T19:56:53.789Z,12.40
2017-12-30T19:59:21.389Z,12.40
2017-12-30T20:01:49.200Z,12.40
2017-12-30T20:04:16.919Z,12.30
2017-12-30T20:06:44.752Z,12.30
2017-12-30T20:09:12.321Z,12.40
2017-12-30T20:11:40.192Z,12.30
2017-12-30T20:14:07.949Z,12.30
2017-12-30T20:16:35.530Z,12.20
2017-12-30T20:19:03.081Z,12.30
2017-12-30T20:21:30.612Z,12.30
2017-12-30T20:23:58.145Z,12.30
2017-12-30T20:26:25.664Z,12.20
2017-12-30T20:28:53.206Z,12.20
2017-12-30T20:31:20.809Z,12.20
2017-12-30T20:33:48.632Z,12.20
2017-12-30T20:36:16.423Z,12.20
2017-12-30T20:38:44.496Z,12.20
2017-12-30T20:41:13.164Z,12.20
2017-12-30T20:43:41.232Z,12.20
2017-12-30T20:46:10.132Z,12.20
2017-12-30T20:48:38.705Z,12.20
2017-12-30T20:51:06.470Z,12.20
2017-12-30T20:53:34.027Z,12.20
2017-12-30T20:56:01.540Z,12.20
2017-12-30T20:58:29.078Z,12.20
2017-12-30T21:00:56.598Z,12.20
2017-12-30T21:03:24.328Z,12.20
2017-12-30T21:05:52.969Z,12.10
2017-12-30T21:08:21.083Z,12.20
2017-12-30T21:10:49.820Z,12.20
2017-12-30T21:13:17.485Z,12.20
2017-12-30T21:15:47.408Z,12.20
2017-12-30T21:18:15.492Z,12.20
2017-12-30T21:20:43.891Z,12.20
2017-12-30T21:23:12.123Z,12.20
2017-12-30T21:25:40.413Z,12.20
2017-12-30T21:28:08.063Z,12.20
2017-12-30T21:30:35.608Z,12.20
2017-12-30T21:33:03.149Z,12.20
2017-12-30T21:35:31.442Z,12.10
2017-12-30T21:37:58.993Z,12.10
2017-12-30T21:40:27.702Z,12.10
2017-12-30T21:42:55.690Z,12.10
2017-12-30T21:45:23.695Z,12.10
2017-12-30T21:47:52.227Z,12.00
2017-12-30T21:50:20.161Z,12.00
2017-12-30T21:52:48.197Z,12.00
2017-12-30T21:55:16.698Z,11.90
2017-12-30T21:57:44.428Z,12.00
2017-12-30T22:00:13.305Z,12.00
2017-12-30T22:02:41.275Z,11.90
2017-12-30T22:05:10.941Z,12.00
2017-12-30T22:07:39.875Z,11.90
2017-12-30T22:10:07.636Z,11.90
2017-12-30T22:12:36.151Z,11.90
2017-12-30T22:15:03.686Z,11.90
2017-12-30T22:17:31.228Z,11.80
2017-12-30T22:19:58.748Z,11.80
2017-12-30T22:22:26.270Z,11.80
2017-12-30T22:24:53.905Z,11.70
2017-12-30T22:27:21.648Z,11.70
2017-12-30T22:29:50.278Z,11.70
2017-12-30T22:32:17.894Z,11.80
2017-12-30T22:34:45.908Z,11.70
2017-12-30T22:37:13.626Z,11.80
2017-12-30T22:39:42.130Z,11.70
2017-12-30T22:42:10.545Z,11.70
2017-12-30T22:44:38.200Z,11.70
2017-12-30T22:47:05.747Z,11.70
2017-12-30T22:49:33.613Z,11.70
2017-12-30T22:52:01.180Z,11.70
2017-12-30T22:54:29.689Z,11.60
2017-12-30T22:56:57.201Z,11.70
2017-12-30T22:59:24.752Z,11.60
2017-12-30T23:01:52.764Z,11.60
2017-12-30T23:04:20.880Z,11.60
2017-12-30T23:06:49.463Z,11.50
2017-12-30T23:09:17.049Z,11.50
2017-12-30T23:11:44.869Z,11.50
2017-12-30T23:14:13.466Z,11.50
2017-12-30T23:16:42.392Z,11.40
2017-12-30T23:19:10.791Z,11.30
2017-12-30T23:21:40.432Z,11.30
2017-12-30T23:24:09.447Z,11.20
2017-12-30T23:26:37.978Z,11.20
2017-12-30T23:29:06.433Z,11.10
2017-12-30T23:31:34.777Z,11.10
2017-12-30T23:34:02.393Z,11.00
2017-12-30T23:36:29.921Z,11.10
2017-12-30T23:38:58.233Z,11.00
2017-12-30T23:41:25.753Z,10.90
2017-12-30T23:43:53.334Z,10.90
2017-12-30T23:46:21.628Z,10.90
2017-12-30T23:48:49.330Z,10.90
2017-12-30T23:51:16.969Z,10.90
2017-12-30T23:53:44.594Z,10.90
2017-12-30T23:56:12.690Z,10.80
2017-12-30T23:58:41.118Z,10.70
